createdAt,value
2023-07-22T00:04:41.764Z,97525.72
2023-07-22T00:09:44.372Z,97529.38
2023-07-22T00:14:46.083Z,97521.00
2023-07-22T00:19:49.131Z,97529.66
2023-07-22T00:24:50.850Z,97529.28
2023-07-22T00:29:52.546Z,97529.09
2023-07-22T00:34:54.308Z,97520.88
2023-07-22T00:39:56.312Z,97529.31
2023-07-22T00:44:58.174Z,97532.34
2023-07-22T00:50:02.746Z,97531.34
2023-07-22T00:55:06.166Z,97537.78
2023-07-22T01:00:08.864Z,97544.44
2023-07-22T01:05:13.308Z,97539.19
2023-07-22T01:10:15.947Z,97546.03
2023-07-22T01:15:19.215Z,97551.44
2023-07-22T01:20:21.588Z,97546.84
2023-07-22T01:25:24.283Z,97541.41
2023-07-22T01:30:31.549Z,97541.19
2023-07-22T01:35:33.269Z,97541.00
2023-07-22T01:40:35.840Z,97536.75
2023-07-22T01:45:39.466Z,97543.78
2023-07-22T01:50:41.165Z,97549.59
2023-07-22T01:55:42.801Z,97559.25
2023-07-22T02:00:44.526Z,97559.50
2023-07-22T02:05:46.315Z,97564.09
2023-07-22T02:10:47.963Z,97557.47
2023-07-22T02:15:49.685Z,97560.25
2023-07-22T02:20:51.626Z,97561.25
2023-07-22T02:25:54.798Z,97569.31
2023-07-22T02:30:56.610Z,97567.06
2023-07-22T02:35:58.318Z,97576.69
2023-07-22T02:41:08.910Z,97585.09
2023-07-22T02:46:10.752Z,97580.84
2023-07-22T02:51:12.606Z,97593.81
2023-07-22T02:56:14.379Z,97595.66
2023-07-22T03:01:16.160Z,97598.41
2023-07-22T03:06:17.963Z,97596.97
2023-07-22T03:11:19.690Z,97600.91
2023-07-22T03:16:21.510Z,97592.53
2023-07-22T03:21:23.471Z,97589.75
2023-07-22T03:26:25.494Z,97594.69
2023-07-22T03:31:27.522Z,97591.44
2023-07-22T03:36:29.605Z,97592.13
2023-07-22T03:41:31.333Z,97599.94
2023-07-22T03:46:33.050Z,97611.69
2023-07-22T03:51:34.994Z,97611.09
2023-07-22T03:56:36.771Z,97619.13
2023-07-22T04:01:38.434Z,97620.25
2023-07-22T04:06:40.314Z,97617.16
2023-07-22T04:11:42.085Z,97619.44
2023-07-22T04:16:43.795Z,97613.91
2023-07-22T04:21:45.529Z,97609.97
2023-07-22T04:26:47.276Z,97610.91
2023-07-22T04:31:48.929Z,97622.34
2023-07-22T04:36:50.650Z,97623.97
2023-07-22T04:41:52.805Z,97630.66
2023-07-22T04:46:54.541Z,97629.88
2023-07-22T04:51:56.859Z,97634.25
2023-07-22T04:57:00.902Z,97646.97
2023-07-22T05:02:02.636Z,97649.06
2023-07-22T05:07:04.553Z,97651.31
2023-07-22T05:12:06.753Z,97651.94
2023-07-22T05:17:08.568Z,97655.00
2023-07-22T05:22:10.352Z,97666.28
2023-07-22T05:27:12.015Z,97663.09
2023-07-22T05:32:31.420Z,97670.56
2023-07-22T05:37:34.509Z,97668.34
2023-07-22T05:42:36.212Z,97666.16
2023-07-22T05:47:37.912Z,97677.63
2023-07-22T05:52:39.637Z,97689.09
2023-07-22T05:57:41.257Z,97688.88
2023-07-22T06:02:43.127Z,97695.31
2023-07-22T06:07:45.235Z,97693.13
2023-07-22T06:12:48.217Z,97693.31
2023-07-22T06:17:49.992Z,97698.56
2023-07-22T06:22:51.690Z,97700.97
2023-07-22T06:27:55.256Z,97699.94
2023-07-22T06:32:57.103Z,97702.16
2023-07-22T06:37:58.865Z,97702.56
2023-07-22T06:43:00.547Z,97715.22
2023-07-22T06:48:02.246Z,97716.38
2023-07-22T06:53:04.942Z,97725.19
2023-07-22T06:58:06.605Z,97727.19
2023-07-22T07:03:08.291Z,97734.88
2023-07-22T07:08:13.487Z,97736.78
2023-07-22T07:13:15.943Z,97749.56
2023-07-22T07:18:18.400Z,97746.44
2023-07-22T07:23:20.047Z,97760.22
2023-07-22T07:28:21.691Z,97754.44
2023-07-22T07:33:23.381Z,97763.34
2023-07-22T07:38:25.048Z,97773.22
2023-07-22T07:43:27.417Z,97767.47
2023-07-22T07:48:29.033Z,97777.97
2023-07-22T07:53:30.685Z,97784.09
2023-07-22T07:58:32.329Z,97785.13
2023-07-22T08:03:36.102Z,97790.63
2023-07-22T08:08:38.852Z,97785.06
2023-07-22T08:13:42.122Z,97786.97
2023-07-22T08:18:44.441Z,97781.34
2023-07-22T08:23:47.757Z,97787.38
2023-07-22T08:28:49.464Z,97781.88
2023-07-22T08:33:51.103Z,97787.25
2023-07-22T08:38:52.830Z,97783.59
2023-07-22T08:43:56.852Z,97785.59
2023-07-22T08:49:01.101Z,97789.28
2023-07-22T08:54:11.109Z,97797.41
2023-07-22T08:59:15.674Z,97784.50
2023-07-22T09:04:17.386Z,97787.03
2023-07-22T09:09:19.802Z,97782.06
2023-07-22T09:14:35.648Z,97784.72
2023-07-22T09:19:38.312Z,97779.22
2023-07-22T09:24:39.998Z,97777.91
2023-07-22T09:29:41.645Z,97770.91
2023-07-22T09:34:56.978Z,97774.81
2023-07-22T09:39:58.941Z,97770.50
2023-07-22T09:45:00.654Z,97760.72
2023-07-22T09:50:02.386Z,97766.63
2023-07-22T09:55:04.256Z,97768.97
2023-07-22T10:00:09.852Z,97759.75
2023-07-22T10:05:16.804Z,97762.91
2023-07-22T10:10:24.909Z,97757.41
2023-07-22T10:15:29.481Z,97755.88
2023-07-22T10:20:31.628Z,97757.25
2023-07-22T10:25:34.285Z,97749.81
2023-07-22T10:30:36.061Z,97748.28
2023-07-22T10:35:45.687Z,97753.56
2023-07-22T10:40:54.958Z,97747.09
2023-07-22T10:46:06.429Z,97745.72
2023-07-22T10:51:11.273Z,97740.97
2023-07-22T10:56:18.585Z,97744.50
2023-07-22T11:01:26.366Z,97749.91
2023-07-22T11:06:28.377Z,97742.28
2023-07-22T11:11:39.290Z,97748.22
2023-07-22T11:16:43.162Z,97740.31
2023-07-22T11:21:46.617Z,97741.63
2023-07-22T11:26:48.709Z,97735.75
2023-07-22T11:31:52.623Z,97730.91
2023-07-22T11:36:56.102Z,97734.97
2023-07-22T11:42:00.485Z,97730.97
2023-07-22T11:47:09.008Z,97725.78
2023-07-22T11:52:12.875Z,97718.16
2023-07-22T11:57:21.956Z,97718.00
2023-07-22T12:02:25.728Z,97717.59
2023-07-22T12:07:35.170Z,97712.69
2023-07-22T12:12:38.351Z,97712.56
2023-07-22T12:17:47.878Z,97711.63
2023-07-22T12:22:50.854Z,97716.66
2023-07-22T12:27:53.120Z,97716.84
2023-07-22T12:32:54.788Z,97702.56
2023-07-22T12:37:56.513Z,97709.22
2023-07-22T12:42:59.832Z,97701.75
2023-07-22T12:48:03.939Z,97700.25
2023-07-22T12:53:05.701Z,97694.75
2023-07-22T12:58:07.413Z,97692.31
2023-07-22T13:03:09.258Z,97682.72
2023-07-22T13:08:11.000Z,97686.47
2023-07-22T13:13:12.723Z,97689.97
2023-07-22T13:18:17.883Z,97677.72
2023-07-22T13:23:19.611Z,97676.97
2023-07-22T13:28:21.270Z,97668.66
2023-07-22T13:33:23.005Z,97663.13
2023-07-22T13:38:24.766Z,97661.69
2023-07-22T13:43:28.361Z,97654.63
2023-07-22T13:48:30.036Z,97662.88
2023-07-22T13:53:31.743Z,97655.91
2023-07-22T13:58:33.424Z,97644.47
2023-07-22T14:03:35.178Z,97655.16
2023-07-22T14:08:37.025Z,97647.94
2023-07-22T14:13:38.691Z,97655.81
2023-07-22T14:18:40.326Z,97641.81
2023-07-22T14:23:43.032Z,97643.22
2023-07-22T14:28:44.696Z,97631.53
2023-07-22T14:33:46.344Z,97631.31
2023-07-22T14:38:47.987Z,97631.97
2023-07-22T14:43:49.616Z,97638.75
2023-07-22T14:48:51.710Z,97634.41
2023-07-22T14:53:53.558Z,97624.94
2023-07-22T14:58:56.009Z,97620.50
2023-07-22T15:03:57.700Z,97622.94
2023-07-22T15:08:59.786Z,97625.56
2023-07-22T15:14:01.560Z,97630.19
2023-07-22T15:19:03.587Z,97619.63
2023-07-22T15:24:06.263Z,97619.28
2023-07-22T15:29:08.403Z,97615.69
2023-07-22T15:34:10.373Z,97604.97
2023-07-22T15:39:12.841Z,97602.22
2023-07-22T15:44:14.669Z,97600.38
2023-07-22T15:49:16.518Z,97610.50
2023-07-22T15:54:19.828Z,97606.03
2023-07-22T15:59:21.706Z,97599.03
2023-07-22T16:04:23.588Z,97593.44
2023-07-22T16:09:25.505Z,97594.97
2023-07-22T16:14:27.381Z,97587.84
2023-07-22T16:19:29.303Z,97585.72
2023-07-22T16:24:31.275Z,97578.28
2023-07-22T16:29:35.578Z,97585.09
2023-07-22T16:34:37.611Z,97586.34
2023-07-22T16:39:39.420Z,97582.66
2023-07-22T16:44:41.269Z,97581.78
2023-07-22T16:49:43.087Z,97582.56
2023-07-22T16:54:44.993Z,97585.44
2023-07-22T16:59:46.859Z,97571.25
2023-07-22T17:04:48.720Z,97569.59
2023-07-22T17:09:50.537Z,97571.63
2023-07-22T17:14:52.431Z,97570.88
2023-07-22T17:19:54.386Z,97576.00
2023-07-22T17:24:56.241Z,97567.97
2023-07-22T17:29:58.119Z,97562.16
2023-07-22T17:35:00.052Z,97561.19
2023-07-22T17:40:02.098Z,97556.19
2023-07-22T17:45:04.473Z,97557.91
2023-07-22T17:50:06.741Z,97550.78
2023-07-22T17:55:09.083Z,97553.59
2023-07-22T18:00:11.944Z,97542.59
2023-07-22T18:05:13.710Z,97547.63
2023-07-22T18:10:15.570Z,97535.13
2023-07-22T18:15:17.448Z,97532.25
2023-07-22T18:20:19.314Z,97536.31
2023-07-22T18:25:21.224Z,97530.72
2023-07-22T18:30:23.125Z,97536.28
2023-07-22T18:35:25.014Z,97547.22
2023-07-22T18:40:26.837Z,97539.81
2023-07-22T18:45:31.304Z,97546.13
2023-07-22T18:50:33.910Z,97536.25
2023-07-22T18:55:39.881Z,97549.44
2023-07-22T19:00:43.174Z,97543.13
2023-07-22T19:05:45.151Z,97541.56
2023-07-22T19:10:47.647Z,97540.09
2023-07-22T19:15:52.007Z,97545.31
2023-07-22T19:20:59.149Z,97545.31
2023-07-22T19:26:04.099Z,97544.53
2023-07-22T19:31:08.586Z,97545.75
2023-07-22T19:36:12.286Z,97551.63
2023-07-22T19:41:14.721Z,97550.22
2023-07-22T19:46:17.946Z,97554.16
2023-07-22T19:51:20.810Z,97546.97
2023-07-22T19:56:22.708Z,97550.69
2023-07-22T20:01:24.561Z,97550.50
2023-07-22T20:06:26.495Z,97549.38
2023-07-22T20:11:28.574Z,97550.63
2023-07-22T20:16:30.615Z,97547.84
2023-07-22T20:21:32.477Z,97551.09
2023-07-22T20:26:34.354Z,97546.06
2023-07-22T20:31:36.249Z,97549.06
2023-07-22T20:36:38.087Z,97544.28
2023-07-22T20:41:39.936Z,97551.66
2023-07-22T20:46:42.054Z,97553.88
2023-07-22T20:51:43.940Z,97549.84
2023-07-22T20:56:47.472Z,97534.59
2023-07-22T21:01:49.336Z,97541.78
2023-07-22T21:06:51.243Z,97543.19
2023-07-22T21:11:53.076Z,97546.19
2023-07-22T21:16:55.042Z,97546.16
2023-07-22T21:21:56.919Z,97540.72
2023-07-22T21:26:58.927Z,97542.91
2023-07-22T21:32:01.367Z,97547.53
2023-07-22T21:37:03.280Z,97544.69
2023-07-22T21:42:06.692Z,97547.25
2023-07-22T21:47:08.573Z,97548.63
2023-07-22T21:52:10.484Z,97537.78
2023-07-22T21:57:12.380Z,97537.53
2023-07-22T22:02:14.350Z,97540.16
2023-07-22T22:07:16.281Z,97540.31
2023-07-22T22:12:18.139Z,97546.41
2023-07-22T22:17:20.013Z,97541.78
2023-07-22T22:22:21.938Z,97544.34
2023-07-22T22:27:23.871Z,97550.34
2023-07-22T22:32:25.989Z,97542.66
2023-07-22T22:37:28.009Z,97541.63
2023-07-22T22:42:29.834Z,97538.59
2023-07-22T22:47:31.764Z,97542.97
2023-07-22T22:52:35.520Z,97537.75
2023-07-22T22:57:37.375Z,97541.09
2023-07-22T23:02:39.319Z,97540.84
2023-07-22T23:07:41.493Z,97542.63
2023-07-22T23:12:43.799Z,97533.75
2023-07-22T23:17:45.780Z,97534.94
2023-07-22T23:22:47.644Z,97525.25
2023-07-22T23:27:49.616Z,97524.47
2023-07-22T23:32:51.533Z,97516.56
2023-07-22T23:37:53.387Z,97518.56
2023-07-22T23:42:55.210Z,97509.34
2023-07-22T23:47:57.080Z,97508.13
2023-07-22T23:52:59.002Z,97506.69
2023-07-22T23:58:04.102Z,97497.81
